SDG090 LIPZ-LICC
Flight info
| Callsign | SDG090 |
|---|---|
| Flight time | 1h 49m |
| Altitude | 33000 |
| Route | DCT AKADO DCT GAVRA DCT RITEB DCT NAPOX DCT TAGEL DCT VAKOR DCT PELEN DCT COBBA |
| Aircraft | A321/M-L/C |
Departure
| Time | 2026-05-05 20:00 |
|---|---|
| Airport | Venice Marco Polo Airport (LIPZ) |
Arrival
| Time | 2026-05-05 21:50 |
|---|---|
| Airport | Catania-Fontanarossa Airport (LICC) |
| Time | Latitude | Longitude | Altitude | Speed | Heading |
|---|---|---|---|---|---|
| 2026-05-05 19:28 | 45.50425 | 12.34215 | 9 ft | 0 kts | 268° |
| 2026-05-05 19:44 | 45.50426 | 12.34250 | 9 ft | 3 kts | 268° |
| 2026-05-05 19:44 | 45.50432 | 12.34282 | 9 ft | 3 kts | 230° |
| 2026-05-05 19:44 | 45.50436 | 12.34288 | 9 ft | 0 kts | 217° |
| 2026-05-05 19:47 | 45.50401 | 12.34277 | 9 ft | 14 kts | 165° |
| 2026-05-05 19:47 | 45.50313 | 12.34335 | 9 ft | 14 kts | 182° |
| 2026-05-05 19:47 | 45.50234 | 12.34274 | 12 ft | 12 kts | 221° |
| 2026-05-05 19:47 | 45.50178 | 12.34205 | 12 ft | 13 kts | 220° |
| 2026-05-05 19:48 | 45.50109 | 12.34117 | 12 ft | 13 kts | 221° |
| 2026-05-05 19:48 | 45.50036 | 12.34030 | 12 ft | 14 kts | 223° |
| 2026-05-05 19:48 | 45.49986 | 12.33961 | 11 ft | 0 kts | 223° |
| 2026-05-05 19:49 | 45.49985 | 12.33961 | 11 ft | 0 kts | 223° |
| 2026-05-05 19:49 | 45.49929 | 12.33888 | 9 ft | 12 kts | 221° |
| 2026-05-05 19:49 | 45.49864 | 12.33804 | 9 ft | 13 kts | 223° |
| 2026-05-05 19:50 | 45.49812 | 12.33734 | 9 ft | 0 kts | 222° |
| 2026-05-05 19:52 | 45.49811 | 12.33733 | 9 ft | 1 kts | 222° |
| 2026-05-05 19:52 | 45.49789 | 12.33703 | 9 ft | 0 kts | 221° |
| 2026-05-05 19:52 | 45.49788 | 12.33703 | 9 ft | 0 kts | 221° |
| 2026-05-05 19:57 | 45.49779 | 12.33691 | 9 ft | 4 kts | 218° |
| 2026-05-05 19:57 | 45.49724 | 12.33644 | 9 ft | 11 kts | 206° |
| 2026-05-05 19:57 | 45.49638 | 12.33557 | 7 ft | 14 kts | 222° |
| 2026-05-05 19:58 | 45.49569 | 12.33526 | 7 ft | 6 kts | 141° |
| 2026-05-05 19:58 | 45.49569 | 12.33527 | 7 ft | 0 kts | 141° |
| 2026-05-05 19:58 | 45.49553 | 12.33546 | 7 ft | 7 kts | 138° |
| 2026-05-05 19:58 | 45.49517 | 12.33598 | 8 ft | 7 kts | 131° |
| 2026-05-05 19:59 | 45.49482 | 12.33655 | 8 ft | 8 kts | 131° |
| 2026-05-05 19:59 | 45.49424 | 12.33751 | 9 ft | 11 kts | 101° |
| 2026-05-05 19:59 | 45.49477 | 12.33849 | 9 ft | 17 kts | 39° |
| 2026-05-05 19:59 | 45.49771 | 12.34207 | 9 ft | 94 kts | 40° |
| 2026-05-05 20:00 | 45.50354 | 12.34966 | 9 ft | 155 kts | 42° |
| 2026-05-05 20:00 | 45.51321 | 12.36208 | 150 ft | 210 kts | 41° |
| 2026-05-05 20:00 | 45.52748 | 12.38051 | 1269 ft | 215 kts | 45° |
| 2026-05-05 20:00 | 45.53424 | 12.39117 | 1082 ft | 222 kts | 54° |
| 2026-05-05 20:01 | 45.53782 | 12.41799 | 601 ft | 223 kts | 97° |
| 2026-05-05 20:01 | 45.53618 | 12.43069 | 517 ft | 218 kts | 100° |
| 2026-05-05 20:01 | 45.53213 | 12.45886 | 436 ft | 218 kts | 99° |
| 2026-05-05 20:01 | 45.52992 | 12.47620 | 601 ft | 224 kts | 98° |
| 2026-05-05 20:02 | 45.52758 | 12.49638 | 1321 ft | 226 kts | 97° |
| 2026-05-05 20:02 | 45.52593 | 12.51093 | 1952 ft | 224 kts | 99° |
| 2026-05-05 20:02 | 45.51950 | 12.53077 | 2728 ft | 230 kts | 134° |
| 2026-05-05 20:02 | 45.49973 | 12.54151 | 3584 ft | 247 kts | 183° |
| 2026-05-05 20:03 | 45.48991 | 12.53933 | 3894 ft | 256 kts | 191° |
| 2026-05-05 20:03 | 45.48797 | 12.53873 | 3954 ft | 258 kts | 191° |
| 2026-05-05 20:03 | 45.48179 | 12.53685 | 4139 ft | 263 kts | 191° |
| 2026-05-05 20:03 | 45.46325 | 12.53158 | 4819 ft | 273 kts | 189° |
| 2026-05-05 20:04 | 45.41534 | 12.51945 | 6867 ft | 277 kts | 189° |
| 2026-05-05 20:04 | 45.39141 | 12.51373 | 7866 ft | 277 kts | 189° |
| 2026-05-05 20:04 | 45.37257 | 12.50930 | 8665 ft | 276 kts | 189° |
| 2026-05-05 20:04 | 45.36010 | 12.50637 | 9143 ft | 276 kts | 189° |
| 2026-05-05 20:05 | 45.33496 | 12.49973 | 9808 ft | 276 kts | 194° |
| 2026-05-05 20:05 | 45.31623 | 12.49252 | 9992 ft | 278 kts | 198° |
| 2026-05-05 20:05 | 45.29790 | 12.48441 | 9997 ft | 277 kts | 199° |
| 2026-05-05 20:05 | 45.27941 | 12.47619 | 10000 ft | 277 kts | 200° |
| 2026-05-05 20:06 | 45.26097 | 12.46798 | 9999 ft | 277 kts | 200° |
| 2026-05-05 20:06 | 45.24268 | 12.45983 | 9998 ft | 276 kts | 200° |
| 2026-05-05 20:06 | 45.22425 | 12.45164 | 9997 ft | 276 kts | 200° |
| 2026-05-05 20:06 | 45.20597 | 12.44348 | 10080 ft | 282 kts | 200° |
| 2026-05-05 20:07 | 45.18683 | 12.43491 | 10451 ft | 294 kts | 200° |
| 2026-05-05 20:07 | 45.16692 | 12.42601 | 10750 ft | 310 kts | 200° |
| 2026-05-05 20:07 | 45.15283 | 12.41975 | 10944 ft | 320 kts | 200° |
| 2026-05-05 20:07 | 45.12360 | 12.40683 | 11304 ft | 340 kts | 200° |
| 2026-05-05 20:08 | 45.10188 | 12.39725 | 11554 ft | 353 kts | 200° |
| 2026-05-05 20:08 | 45.07806 | 12.38676 | 11808 ft | 366 kts | 199° |
| 2026-05-05 20:08 | 45.05339 | 12.37593 | 12107 ft | 376 kts | 199° |
| 2026-05-05 20:08 | 45.02818 | 12.36486 | 12581 ft | 381 kts | 199° |
| 2026-05-05 20:09 | 45.00307 | 12.35387 | 13110 ft | 383 kts | 200° |
| 2026-05-05 20:09 | 44.97757 | 12.34269 | 13624 ft | 386 kts | 200° |
| 2026-05-05 20:09 | 44.95192 | 12.33138 | 14100 ft | 387 kts | 200° |
| 2026-05-05 20:09 | 44.92598 | 12.32001 | 14543 ft | 391 kts | 200° |
| 2026-05-05 20:10 | 44.89975 | 12.30848 | 15018 ft | 394 kts | 200° |
| 2026-05-05 20:10 | 44.87346 | 12.29696 | 15506 ft | 397 kts | 200° |
| 2026-05-05 20:10 | 44.84734 | 12.28554 | 15987 ft | 400 kts | 200° |
| 2026-05-05 20:10 | 44.82052 | 12.27381 | 16466 ft | 402 kts | 200° |
| 2026-05-05 20:11 | 44.79372 | 12.26210 | 16920 ft | 403 kts | 200° |
| 2026-05-05 20:11 | 44.76693 | 12.25033 | 17326 ft | 407 kts | 200° |
| 2026-05-05 20:11 | 44.73990 | 12.23847 | 17760 ft | 409 kts | 200° |
| 2026-05-05 20:11 | 44.71279 | 12.22661 | 18199 ft | 412 kts | 200° |
| 2026-05-05 20:12 | 44.68550 | 12.21470 | 18614 ft | 414 kts | 200° |
| 2026-05-05 20:12 | 44.65802 | 12.20272 | 19014 ft | 416 kts | 200° |
| 2026-05-05 20:12 | 44.63038 | 12.19069 | 19405 ft | 419 kts | 200° |
| 2026-05-05 20:12 | 44.60212 | 12.17841 | 19793 ft | 421 kts | 200° |
| 2026-05-05 20:13 | 44.57412 | 12.16626 | 20166 ft | 424 kts | 200° |
| 2026-05-05 20:13 | 44.54594 | 12.15403 | 20526 ft | 426 kts | 200° |
| 2026-05-05 20:13 | 44.51754 | 12.14173 | 20878 ft | 429 kts | 200° |
| 2026-05-05 20:13 | 44.48935 | 12.12952 | 21207 ft | 430 kts | 200° |
| 2026-05-05 20:14 | 44.46075 | 12.11718 | 21514 ft | 433 kts | 200° |
| 2026-05-05 20:14 | 44.43156 | 12.10459 | 21840 ft | 436 kts | 200° |
| 2026-05-05 20:14 | 44.40286 | 12.09223 | 22160 ft | 438 kts | 200° |
| 2026-05-05 20:14 | 44.37326 | 12.07949 | 22486 ft | 441 kts | 200° |
| 2026-05-05 20:15 | 44.34427 | 12.06702 | 22792 ft | 443 kts | 200° |
| 2026-05-05 20:15 | 44.31461 | 12.05427 | 23094 ft | 445 kts | 200° |
| 2026-05-05 20:15 | 44.28507 | 12.04158 | 23388 ft | 448 kts | 200° |
| 2026-05-05 20:16 | 44.23077 | 12.01828 | 23904 ft | 452 kts | 200° |
| 2026-05-05 20:16 | 44.20079 | 12.00544 | 24179 ft | 454 kts | 200° |
| 2026-05-05 20:16 | 44.17066 | 11.99254 | 24451 ft | 456 kts | 200° |
| 2026-05-05 20:16 | 44.14017 | 11.97951 | 24726 ft | 458 kts | 200° |
| 2026-05-05 20:17 | 44.10971 | 11.96651 | 25085 ft | 457 kts | 200° |
| 2026-05-05 20:17 | 44.07930 | 11.95356 | 25491 ft | 455 kts | 200° |
| 2026-05-05 20:17 | 44.04933 | 11.94080 | 25886 ft | 454 kts | 200° |
| 2026-05-05 20:17 | 44.01930 | 11.92802 | 26269 ft | 452 kts | 200° |
| 2026-05-05 20:18 | 43.98928 | 11.91525 | 26669 ft | 451 kts | 201° |
| 2026-05-05 20:18 | 43.95923 | 11.90245 | 27079 ft | 450 kts | 201° |
| 2026-05-05 20:18 | 43.92921 | 11.88969 | 27503 ft | 449 kts | 201° |
| 2026-05-05 20:18 | 43.89942 | 11.87705 | 27931 ft | 447 kts | 201° |
| 2026-05-05 20:19 | 43.87020 | 11.86410 | 28341 ft | 443 kts | 205° |
| 2026-05-05 20:19 | 43.84351 | 11.84338 | 28686 ft | 433 kts | 222° |
| 2026-05-05 20:19 | 43.82304 | 11.81359 | 29114 ft | 424 kts | 237° |
| 2026-05-05 20:19 | 43.80944 | 11.77814 | 29572 ft | 417 kts | 251° |
| 2026-05-05 20:20 | 43.80326 | 11.73944 | 30012 ft | 414 kts | 265° |
| 2026-05-05 20:20 | 43.80448 | 11.70034 | 30427 ft | 413 kts | 278° |
| 2026-05-05 20:20 | 43.81311 | 11.66253 | 30832 ft | 417 kts | 292° |
| 2026-05-05 20:20 | 43.82905 | 11.62847 | 31262 ft | 422 kts | 306° |
| 2026-05-05 20:21 | 43.85099 | 11.60120 | 31639 ft | 431 kts | 321° |
| 2026-05-05 20:21 | 43.87823 | 11.58276 | 31930 ft | 445 kts | 336° |
| 2026-05-05 20:21 | 43.90901 | 11.57542 | 32193 ft | 462 kts | 352° |
| 2026-05-05 20:21 | 43.94133 | 11.58089 | 32450 ft | 479 kts | 10° |
| 2026-05-05 20:22 | 43.97212 | 11.60030 | 32645 ft | 496 kts | 29° |
| 2026-05-05 20:22 | 43.99611 | 11.63010 | 32809 ft | 509 kts | 47° |
| 2026-05-05 20:22 | 44.01424 | 11.67250 | 32898 ft | 518 kts | 68° |
| 2026-05-05 20:22 | 44.02270 | 11.72104 | 32976 ft | 518 kts | 82° |
| 2026-05-05 20:23 | 44.02948 | 11.76974 | 32960 ft | 516 kts | 73° |
| 2026-05-05 20:23 | 44.04417 | 11.81474 | 32969 ft | 510 kts | 53° |
| 2026-05-05 20:23 | 44.06770 | 11.85040 | 33010 ft | 498 kts | 33° |
| 2026-05-05 20:23 | 44.09741 | 11.87332 | 33036 ft | 481 kts | 13° |
| 2026-05-05 20:24 | 44.12962 | 11.88251 | 33039 ft | 468 kts | 359° |
| 2026-05-05 20:24 | 44.19426 | 11.89461 | 33005 ft | 480 kts | 10° |
| 2026-05-05 20:24 | 44.22511 | 11.91243 | 33002 ft | 491 kts | 22° |
| 2026-05-05 20:25 | 44.25439 | 11.93834 | 33002 ft | 499 kts | 32° |
| 2026-05-05 20:25 | 44.30250 | 12.00869 | 32999 ft | 511 kts | 53° |
| 2026-05-05 20:25 | 44.31976 | 12.05160 | 32998 ft | 514 kts | 64° |
| 2026-05-05 20:26 | 44.33184 | 12.09886 | 32998 ft | 516 kts | 75° |
| 2026-05-05 20:26 | 44.33819 | 12.19801 | 32997 ft | 514 kts | 96° |
| 2026-05-05 20:26 | 44.33255 | 12.24641 | 32997 ft | 511 kts | 107° |
| 2026-05-05 20:27 | 44.32113 | 12.29346 | 32995 ft | 506 kts | 117° |
| 2026-05-05 20:27 | 44.28316 | 12.37345 | 32974 ft | 487 kts | 144° |
| 2026-05-05 20:27 | 44.25550 | 12.39828 | 32987 ft | 470 kts | 163° |
| 2026-05-05 20:28 | 44.22501 | 12.41462 | 32994 ft | 465 kts | 168° |
| 2026-05-05 20:28 | 44.16304 | 12.43165 | 32994 ft | 450 kts | 183° |
| 2026-05-05 20:29 | 44.10068 | 12.43543 | 32998 ft | 451 kts | 185° |
| 2026-05-05 20:29 | 44.03789 | 12.43818 | 33004 ft | 451 kts | 185° |
| 2026-05-05 20:30 | 43.97535 | 12.44090 | 33010 ft | 451 kts | 185° |
| 2026-05-05 20:30 | 43.91243 | 12.44366 | 33017 ft | 451 kts | 185° |
| 2026-05-05 20:31 | 43.84968 | 12.44642 | 33023 ft | 451 kts | 185° |
| 2026-05-05 20:31 | 43.78901 | 12.44910 | 33034 ft | 452 kts | 185° |
| 2026-05-05 20:32 | 43.72623 | 12.45186 | 33053 ft | 452 kts | 185° |
| 2026-05-05 20:32 | 43.66334 | 12.45460 | 33056 ft | 452 kts | 185° |
| 2026-05-05 20:33 | 43.60082 | 12.45733 | 33048 ft | 452 kts | 185° |
| 2026-05-05 20:33 | 43.53780 | 12.46007 | 33045 ft | 452 kts | 185° |
| 2026-05-05 20:34 | 43.47946 | 12.46261 | 33044 ft | 452 kts | 185° |
| 2026-05-05 20:34 | 43.41652 | 12.46536 | 33038 ft | 453 kts | 185° |
| 2026-05-05 20:35 | 43.35386 | 12.46808 | 33032 ft | 453 kts | 185° |
| 2026-05-05 20:35 | 43.29055 | 12.47082 | 33035 ft | 453 kts | 185° |
| 2026-05-05 20:36 | 43.22769 | 12.47354 | 33040 ft | 453 kts | 185° |
| 2026-05-05 20:36 | 43.16467 | 12.47629 | 33041 ft | 454 kts | 185° |
| 2026-05-05 20:37 | 43.10162 | 12.47901 | 33058 ft | 454 kts | 185° |
| 2026-05-05 20:37 | 43.03875 | 12.48173 | 33061 ft | 454 kts | 185° |
| 2026-05-05 20:38 | 42.97518 | 12.48444 | 33059 ft | 454 kts | 185° |
| 2026-05-05 20:38 | 42.91234 | 12.48712 | 33057 ft | 455 kts | 185° |
| 2026-05-05 20:39 | 42.84920 | 12.48981 | 33054 ft | 455 kts | 185° |
| 2026-05-05 20:39 | 42.78565 | 12.49250 | 33052 ft | 455 kts | 185° |
| 2026-05-05 20:40 | 42.72228 | 12.49523 | 33052 ft | 455 kts | 185° |
| 2026-05-05 20:40 | 42.65900 | 12.49794 | 33052 ft | 455 kts | 185° |
| 2026-05-05 20:41 | 42.59607 | 12.50062 | 33052 ft | 455 kts | 185° |
| 2026-05-05 20:41 | 42.53254 | 12.50330 | 33051 ft | 455 kts | 185° |
| 2026-05-05 20:42 | 42.46929 | 12.50596 | 33049 ft | 455 kts | 185° |
| 2026-05-05 20:42 | 42.40609 | 12.50862 | 33050 ft | 456 kts | 185° |
| 2026-05-05 20:43 | 42.34283 | 12.51127 | 33054 ft | 456 kts | 185° |
| 2026-05-05 20:43 | 42.27952 | 12.51393 | 33058 ft | 456 kts | 185° |
| 2026-05-05 20:44 | 42.21628 | 12.51658 | 33061 ft | 456 kts | 185° |
| 2026-05-05 20:44 | 42.15274 | 12.51924 | 33061 ft | 456 kts | 185° |
| 2026-05-05 20:45 | 42.05811 | 12.52318 | 33060 ft | 455 kts | 185° |
| 2026-05-05 20:45 | 41.99475 | 12.52581 | 33058 ft | 455 kts | 185° |
| 2026-05-05 20:46 | 41.93131 | 12.53070 | 33056 ft | 459 kts | 181° |
| 2026-05-05 20:46 | 41.86798 | 12.54410 | 33057 ft | 466 kts | 174° |
| 2026-05-05 20:47 | 41.80526 | 12.56723 | 33065 ft | 472 kts | 168° |
| 2026-05-05 20:47 | 41.74323 | 12.59814 | 33076 ft | 474 kts | 165° |
| 2026-05-05 20:48 | 41.68171 | 12.62933 | 33084 ft | 475 kts | 165° |
| 2026-05-05 20:48 | 41.61994 | 12.66048 | 33085 ft | 475 kts | 166° |
| 2026-05-05 20:49 | 41.55818 | 12.69152 | 33084 ft | 475 kts | 166° |
| 2026-05-05 20:49 | 41.49992 | 12.72072 | 33081 ft | 475 kts | 166° |
| 2026-05-05 20:50 | 41.43775 | 12.75180 | 33079 ft | 475 kts | 166° |
| 2026-05-05 20:50 | 41.37597 | 12.78265 | 33077 ft | 475 kts | 166° |
| 2026-05-05 20:51 | 41.31380 | 12.81363 | 33076 ft | 476 kts | 166° |
| 2026-05-05 20:51 | 41.25222 | 12.84426 | 33076 ft | 476 kts | 166° |
| 2026-05-05 20:52 | 41.19000 | 12.87513 | 33076 ft | 476 kts | 166° |
| 2026-05-05 20:52 | 41.12830 | 12.90564 | 33076 ft | 476 kts | 166° |
| 2026-05-05 20:53 | 41.06641 | 12.93620 | 33076 ft | 476 kts | 165° |
| 2026-05-05 20:53 | 41.00417 | 12.96689 | 33079 ft | 477 kts | 165° |
| 2026-05-05 20:54 | 40.94214 | 12.99743 | 33081 ft | 477 kts | 165° |
| 2026-05-05 20:54 | 40.87978 | 13.02807 | 33080 ft | 477 kts | 165° |
| 2026-05-05 20:55 | 40.81744 | 13.05860 | 33078 ft | 478 kts | 165° |
| 2026-05-05 20:55 | 40.75521 | 13.08903 | 33076 ft | 478 kts | 165° |
| 2026-05-05 20:56 | 40.69292 | 13.11944 | 33074 ft | 478 kts | 165° |
| 2026-05-05 20:56 | 40.63079 | 13.14973 | 33074 ft | 475 kts | 165° |
| 2026-05-05 20:57 | 40.56945 | 13.17962 | 33077 ft | 467 kts | 165° |
| 2026-05-05 20:57 | 40.50843 | 13.20922 | 33080 ft | 467 kts | 165° |
| 2026-05-05 20:58 | 40.44778 | 13.23860 | 33083 ft | 467 kts | 165° |
| 2026-05-05 20:58 | 40.38680 | 13.26810 | 33084 ft | 467 kts | 165° |
| 2026-05-05 20:59 | 40.32634 | 13.29733 | 33083 ft | 456 kts | 165° |
| 2026-05-05 20:59 | 40.26772 | 13.32861 | 33084 ft | 459 kts | 161° |
| 2026-05-05 21:00 | 40.20968 | 13.36275 | 33082 ft | 459 kts | 161° |
| 2026-05-05 21:00 | 40.15119 | 13.39715 | 33079 ft | 459 kts | 161° |
| 2026-05-05 21:01 | 40.09307 | 13.43126 | 33076 ft | 459 kts | 161° |
| 2026-05-05 21:01 | 40.03486 | 13.46536 | 33074 ft | 459 kts | 161° |
| 2026-05-05 21:02 | 39.97666 | 13.49937 | 33073 ft | 459 kts | 161° |
| 2026-05-05 21:02 | 39.91835 | 13.53341 | 33071 ft | 460 kts | 161° |
| 2026-05-05 21:03 | 39.85978 | 13.56754 | 33068 ft | 460 kts | 161° |
| 2026-05-05 21:03 | 39.80232 | 13.60102 | 33062 ft | 439 kts | 161° |
| 2026-05-05 21:04 | 39.77488 | 13.61703 | 33061 ft | 426 kts | 161° |
| 2026-05-05 21:04 | 39.74810 | 13.63256 | 33066 ft | 425 kts | 161° |
| 2026-05-05 21:04 | 39.69392 | 13.66387 | 33072 ft | 424 kts | 162° |
| 2026-05-05 21:05 | 39.64035 | 13.69480 | 33078 ft | 424 kts | 162° |
| 2026-05-05 21:05 | 39.61322 | 13.71044 | 32926 ft | 424 kts | 161° |
| 2026-05-05 21:05 | 39.58645 | 13.72588 | 32725 ft | 424 kts | 161° |
| 2026-05-05 21:06 | 39.55935 | 13.74150 | 32486 ft | 424 kts | 161° |
| 2026-05-05 21:06 | 39.53248 | 13.75697 | 32239 ft | 424 kts | 161° |
| 2026-05-05 21:06 | 39.50542 | 13.77254 | 31990 ft | 424 kts | 161° |
| 2026-05-05 21:06 | 39.47838 | 13.78809 | 31741 ft | 424 kts | 161° |
| 2026-05-05 21:07 | 39.45156 | 13.80349 | 31460 ft | 424 kts | 161° |
| 2026-05-05 21:07 | 39.42445 | 13.81905 | 31167 ft | 425 kts | 161° |
| 2026-05-05 21:07 | 39.39749 | 13.83452 | 30875 ft | 425 kts | 161° |
| 2026-05-05 21:07 | 39.37064 | 13.84990 | 30586 ft | 425 kts | 161° |
| 2026-05-05 21:08 | 39.34363 | 13.86535 | 30296 ft | 425 kts | 161° |
| 2026-05-05 21:08 | 39.31643 | 13.88090 | 30004 ft | 426 kts | 161° |
| 2026-05-05 21:08 | 39.29126 | 13.89529 | 29737 ft | 426 kts | 161° |
| 2026-05-05 21:08 | 39.26392 | 13.91091 | 29466 ft | 426 kts | 161° |
| 2026-05-05 21:09 | 39.23686 | 13.92637 | 29193 ft | 426 kts | 161° |
| 2026-05-05 21:09 | 39.21018 | 13.94159 | 28922 ft | 426 kts | 161° |
| 2026-05-05 21:09 | 39.18277 | 13.95720 | 28644 ft | 427 kts | 161° |
| 2026-05-05 21:09 | 39.15561 | 13.97266 | 28370 ft | 428 kts | 161° |
| 2026-05-05 21:10 | 39.12837 | 13.98817 | 28093 ft | 428 kts | 161° |
| 2026-05-05 21:10 | 39.10092 | 14.00378 | 27815 ft | 429 kts | 161° |
| 2026-05-05 21:10 | 39.07566 | 14.01813 | 27559 ft | 429 kts | 161° |
| 2026-05-05 21:10 | 39.05027 | 14.03253 | 27302 ft | 429 kts | 161° |
| 2026-05-05 21:11 | 39.02280 | 14.04811 | 27033 ft | 430 kts | 160° |
| 2026-05-05 21:11 | 38.99539 | 14.06363 | 26768 ft | 430 kts | 160° |
| 2026-05-05 21:11 | 38.96810 | 14.07907 | 26504 ft | 431 kts | 160° |
| 2026-05-05 21:11 | 38.94075 | 14.09453 | 26241 ft | 432 kts | 160° |
| 2026-05-05 21:12 | 38.91321 | 14.11009 | 25973 ft | 432 kts | 160° |
| 2026-05-05 21:12 | 38.88557 | 14.12569 | 25704 ft | 433 kts | 160° |
| 2026-05-05 21:12 | 38.85802 | 14.14123 | 25432 ft | 432 kts | 160° |
| 2026-05-05 21:12 | 38.83106 | 14.15650 | 25117 ft | 417 kts | 159° |
| 2026-05-05 21:13 | 38.80498 | 14.17202 | 24846 ft | 412 kts | 159° |
| 2026-05-05 21:13 | 38.77913 | 14.18766 | 24580 ft | 412 kts | 158° |
| 2026-05-05 21:13 | 38.75312 | 14.20342 | 24309 ft | 412 kts | 158° |
| 2026-05-05 21:13 | 38.72680 | 14.21931 | 24074 ft | 417 kts | 158° |
| 2026-05-05 21:14 | 38.70070 | 14.23508 | 23721 ft | 408 kts | 158° |
| 2026-05-05 21:14 | 38.67540 | 14.25034 | 23364 ft | 401 kts | 158° |
| 2026-05-05 21:14 | 38.65013 | 14.26551 | 23075 ft | 410 kts | 159° |
| 2026-05-05 21:14 | 38.62367 | 14.28130 | 22818 ft | 432 kts | 158° |
| 2026-05-05 21:15 | 38.59572 | 14.29798 | 22557 ft | 446 kts | 158° |
| 2026-05-05 21:15 | 38.56743 | 14.31493 | 22299 ft | 448 kts | 158° |
| 2026-05-05 21:15 | 38.53930 | 14.33180 | 22046 ft | 448 kts | 158° |
| 2026-05-05 21:15 | 38.51112 | 14.34869 | 21792 ft | 448 kts | 158° |
| 2026-05-05 21:16 | 38.48735 | 14.36290 | 21572 ft | 450 kts | 158° |
| 2026-05-05 21:16 | 38.45863 | 14.38004 | 21339 ft | 460 kts | 158° |
| 2026-05-05 21:16 | 38.42961 | 14.39736 | 21094 ft | 461 kts | 158° |
| 2026-05-05 21:16 | 38.40081 | 14.41456 | 20853 ft | 460 kts | 158° |
| 2026-05-05 21:17 | 38.37161 | 14.43197 | 20606 ft | 459 kts | 158° |
| 2026-05-05 21:17 | 38.34283 | 14.44908 | 20363 ft | 457 kts | 158° |
| 2026-05-05 21:17 | 38.31412 | 14.46615 | 20119 ft | 455 kts | 158° |
| 2026-05-05 21:17 | 38.28548 | 14.48313 | 19874 ft | 453 kts | 158° |
| 2026-05-05 21:18 | 38.25706 | 14.49995 | 19631 ft | 451 kts | 158° |
| 2026-05-05 21:18 | 38.22918 | 14.51648 | 19345 ft | 431 kts | 158° |
| 2026-05-05 21:18 | 38.20280 | 14.53218 | 19082 ft | 400 kts | 158° |
| 2026-05-05 21:18 | 38.17846 | 14.54665 | 18818 ft | 378 kts | 158° |
| 2026-05-05 21:19 | 38.15482 | 14.56063 | 18514 ft | 367 kts | 158° |
| 2026-05-05 21:19 | 38.13233 | 14.57405 | 18238 ft | 345 kts | 158° |
| 2026-05-05 21:19 | 38.11092 | 14.58665 | 18031 ft | 340 kts | 159° |
| 2026-05-05 21:19 | 38.08941 | 14.59936 | 17844 ft | 338 kts | 159° |
| 2026-05-05 21:20 | 38.06823 | 14.61169 | 17555 ft | 333 kts | 158° |
| 2026-05-05 21:20 | 38.04740 | 14.62393 | 17248 ft | 327 kts | 157° |
| 2026-05-05 21:20 | 38.02696 | 14.63607 | 16938 ft | 322 kts | 158° |
| 2026-05-05 21:20 | 38.00673 | 14.64817 | 16664 ft | 316 kts | 158° |
| 2026-05-05 21:21 | 37.98686 | 14.65963 | 16399 ft | 314 kts | 158° |
| 2026-05-05 21:21 | 37.96698 | 14.67115 | 16016 ft | 312 kts | 160° |
| 2026-05-05 21:21 | 37.94707 | 14.68109 | 15712 ft | 304 kts | 165° |
| 2026-05-05 21:21 | 37.92713 | 14.68854 | 15465 ft | 294 kts | 173° |
| 2026-05-05 21:22 | 37.90705 | 14.69089 | 15267 ft | 286 kts | 187° |
| 2026-05-05 21:22 | 37.88731 | 14.68741 | 15245 ft | 284 kts | 199° |
| 2026-05-05 21:22 | 37.86879 | 14.67872 | 15228 ft | 281 kts | 211° |
| 2026-05-05 21:22 | 37.85228 | 14.66587 | 15103 ft | 277 kts | 221° |
| 2026-05-05 21:23 | 37.83798 | 14.65001 | 14925 ft | 267 kts | 230° |
| 2026-05-05 21:23 | 37.82664 | 14.63237 | 14787 ft | 255 kts | 239° |
| 2026-05-05 21:23 | 37.81783 | 14.61328 | 14616 ft | 246 kts | 246° |
| 2026-05-05 21:23 | 37.81054 | 14.59391 | 14347 ft | 243 kts | 246° |
| 2026-05-05 21:24 | 37.80336 | 14.57477 | 14113 ft | 238 kts | 246° |
| 2026-05-05 21:24 | 37.79621 | 14.55593 | 13792 ft | 239 kts | 246° |
| 2026-05-05 21:24 | 37.78888 | 14.53662 | 13315 ft | 246 kts | 246° |
| 2026-05-05 21:24 | 37.78159 | 14.51741 | 13082 ft | 241 kts | 246° |
| 2026-05-05 21:25 | 37.77449 | 14.49878 | 13049 ft | 228 kts | 246° |
| 2026-05-05 21:25 | 37.76688 | 14.48155 | 13022 ft | 227 kts | 234° |
| 2026-05-05 21:25 | 37.75692 | 14.46881 | 13020 ft | 229 kts | 220° |
| 2026-05-05 21:25 | 37.74292 | 14.45878 | 13019 ft | 232 kts | 205° |
| 2026-05-05 21:26 | 37.72702 | 14.45421 | 13026 ft | 237 kts | 188° |
| 2026-05-05 21:26 | 37.71044 | 14.45475 | 13043 ft | 240 kts | 181° |
| 2026-05-05 21:26 | 37.69374 | 14.45659 | 13042 ft | 240 kts | 180° |
| 2026-05-05 21:26 | 37.67708 | 14.45856 | 13032 ft | 240 kts | 180° |
| 2026-05-05 21:27 | 37.66056 | 14.46047 | 12901 ft | 236 kts | 180° |
| 2026-05-05 21:27 | 37.64464 | 14.46535 | 12648 ft | 242 kts | 157° |
| 2026-05-05 21:27 | 37.63143 | 14.47903 | 12233 ft | 252 kts | 129° |
| 2026-05-05 21:27 | 37.62418 | 14.49910 | 11865 ft | 257 kts | 102° |
| 2026-05-05 21:28 | 37.62389 | 14.52156 | 11522 ft | 257 kts | 86° |
| 2026-05-05 21:28 | 37.62581 | 14.54393 | 11176 ft | 255 kts | 84° |
| 2026-05-05 21:28 | 37.62781 | 14.56604 | 10727 ft | 253 kts | 85° |
| 2026-05-05 21:28 | 37.62960 | 14.58795 | 10224 ft | 252 kts | 85° |
| 2026-05-05 21:29 | 37.63124 | 14.60975 | 9749 ft | 250 kts | 85° |
| 2026-05-05 21:29 | 37.63279 | 14.63153 | 9524 ft | 246 kts | 86° |
| 2026-05-05 21:29 | 37.63426 | 14.65282 | 9511 ft | 246 kts | 86° |
| 2026-05-05 21:29 | 37.63573 | 14.67441 | 9502 ft | 244 kts | 86° |
| 2026-05-05 21:30 | 37.63715 | 14.69566 | 9505 ft | 243 kts | 87° |
| 2026-05-05 21:30 | 37.63551 | 14.71629 | 9499 ft | 240 kts | 114° |
| 2026-05-05 21:30 | 37.62592 | 14.73313 | 9534 ft | 236 kts | 144° |
| 2026-05-05 21:30 | 37.61156 | 14.74188 | 9443 ft | 227 kts | 171° |
| 2026-05-05 21:31 | 37.59594 | 14.74452 | 9095 ft | 226 kts | 176° |
| 2026-05-05 21:31 | 37.58033 | 14.74652 | 8741 ft | 227 kts | 176° |
| 2026-05-05 21:31 | 37.56462 | 14.74836 | 8419 ft | 225 kts | 183° |
| 2026-05-05 21:31 | 37.54992 | 14.74313 | 8116 ft | 219 kts | 217° |
| 2026-05-05 21:32 | 37.53986 | 14.72895 | 8092 ft | 219 kts | 245° |
| 2026-05-05 21:32 | 37.53624 | 14.71066 | 8039 ft | 216 kts | 263° |
| 2026-05-05 21:32 | 37.53478 | 14.69171 | 7699 ft | 217 kts | 264° |
| 2026-05-05 21:32 | 37.53332 | 14.67268 | 7323 ft | 219 kts | 264° |
| 2026-05-05 21:33 | 37.53180 | 14.65390 | 7097 ft | 217 kts | 264° |
| 2026-05-05 21:33 | 37.53042 | 14.63755 | 7096 ft | 219 kts | 263° |
| 2026-05-05 21:33 | 37.52879 | 14.61857 | 7090 ft | 220 kts | 263° |
| 2026-05-05 21:33 | 37.52711 | 14.59937 | 7088 ft | 220 kts | 263° |
| 2026-05-05 21:34 | 37.52517 | 14.57732 | 7087 ft | 221 kts | 263° |
| 2026-05-05 21:34 | 37.52347 | 14.55818 | 7078 ft | 220 kts | 263° |
| 2026-05-05 21:34 | 37.52181 | 14.53935 | 6972 ft | 210 kts | 263° |
| 2026-05-05 21:34 | 37.52023 | 14.52152 | 6798 ft | 198 kts | 264° |
| 2026-05-05 21:35 | 37.51875 | 14.50487 | 6599 ft | 188 kts | 263° |
| 2026-05-05 21:35 | 37.51734 | 14.48890 | 6407 ft | 178 kts | 263° |
| 2026-05-05 21:35 | 37.51603 | 14.47387 | 6178 ft | 170 kts | 261° |
| 2026-05-05 21:35 | 37.51250 | 14.45996 | 5837 ft | 165 kts | 237° |
| 2026-05-05 21:36 | 37.50481 | 14.44959 | 5470 ft | 161 kts | 213° |
| 2026-05-05 21:36 | 37.49475 | 14.44414 | 5126 ft | 156 kts | 191° |
| 2026-05-05 21:36 | 37.48418 | 14.44378 | 5063 ft | 153 kts | 175° |
| 2026-05-05 21:36 | 37.47351 | 14.44523 | 5060 ft | 154 kts | 173° |
| 2026-05-05 21:37 | 37.46279 | 14.44688 | 5026 ft | 152 kts | 173° |
| 2026-05-05 21:37 | 37.45230 | 14.44846 | 4735 ft | 151 kts | 173° |
| 2026-05-05 21:37 | 37.44188 | 14.44999 | 4339 ft | 153 kts | 173° |
| 2026-05-05 21:37 | 37.43154 | 14.45318 | 3961 ft | 152 kts | 155° |
| 2026-05-05 21:38 | 37.42333 | 14.46093 | 3856 ft | 150 kts | 133° |
| 2026-05-05 21:38 | 37.41784 | 14.47230 | 3907 ft | 153 kts | 111° |
| 2026-05-05 21:38 | 37.41495 | 14.48527 | 3924 ft | 154 kts | 106° |
| 2026-05-05 21:38 | 37.41238 | 14.49840 | 3920 ft | 154 kts | 100° |
| 2026-05-05 21:39 | 37.41342 | 14.51162 | 3898 ft | 153 kts | 75° |
| 2026-05-05 21:39 | 37.41672 | 14.52418 | 3666 ft | 148 kts | 75° |
| 2026-05-05 21:39 | 37.41938 | 14.53648 | 3307 ft | 146 kts | 79° |
| 2026-05-05 21:39 | 37.42136 | 14.54879 | 2974 ft | 143 kts | 81° |
| 2026-05-05 21:40 | 37.42321 | 14.56128 | 2939 ft | 144 kts | 82° |
| 2026-05-05 21:40 | 37.42494 | 14.57367 | 2930 ft | 145 kts | 83° |
| 2026-05-05 21:40 | 37.42657 | 14.58629 | 2923 ft | 145 kts | 84° |
| 2026-05-05 21:40 | 37.42806 | 14.59874 | 2922 ft | 145 kts | 84° |
| 2026-05-05 21:41 | 37.42944 | 14.61144 | 2918 ft | 145 kts | 85° |
| 2026-05-05 21:41 | 37.43073 | 14.62410 | 2923 ft | 145 kts | 85° |
| 2026-05-05 21:41 | 37.43195 | 14.63676 | 2930 ft | 145 kts | 86° |
| 2026-05-05 21:41 | 37.43307 | 14.64938 | 2937 ft | 145 kts | 86° |
| 2026-05-05 21:42 | 37.43414 | 14.66202 | 2947 ft | 145 kts | 86° |
| 2026-05-05 21:42 | 37.43518 | 14.67462 | 2955 ft | 145 kts | 87° |
| 2026-05-05 21:42 | 37.43617 | 14.68722 | 2963 ft | 146 kts | 87° |
| 2026-05-05 21:42 | 37.43715 | 14.69991 | 2970 ft | 145 kts | 87° |
| 2026-05-05 21:43 | 37.43811 | 14.71261 | 2975 ft | 146 kts | 87° |
| 2026-05-05 21:43 | 37.43907 | 14.72532 | 2980 ft | 145 kts | 87° |
| 2026-05-05 21:43 | 37.44002 | 14.73805 | 2982 ft | 146 kts | 88° |
| 2026-05-05 21:43 | 37.44097 | 14.75097 | 2993 ft | 151 kts | 88° |
| 2026-05-05 21:44 | 37.44194 | 14.76424 | 2991 ft | 153 kts | 87° |
| 2026-05-05 21:44 | 37.44296 | 14.77753 | 2988 ft | 154 kts | 87° |
| 2026-05-05 21:44 | 37.44401 | 14.79073 | 2969 ft | 147 kts | 87° |
| 2026-05-05 21:44 | 37.44505 | 14.80349 | 2972 ft | 146 kts | 87° |
| 2026-05-05 21:45 | 37.44608 | 14.81614 | 2975 ft | 146 kts | 86° |
| 2026-05-05 21:45 | 37.44710 | 14.82887 | 2976 ft | 146 kts | 86° |
| 2026-05-05 21:45 | 37.44815 | 14.84165 | 2978 ft | 146 kts | 86° |
| 2026-05-05 21:45 | 37.44922 | 14.85442 | 2976 ft | 146 kts | 87° |
| 2026-05-05 21:46 | 37.45026 | 14.86724 | 2913 ft | 147 kts | 87° |
| 2026-05-05 21:46 | 37.45129 | 14.87997 | 2723 ft | 146 kts | 86° |
| 2026-05-05 21:46 | 37.45231 | 14.89256 | 2536 ft | 145 kts | 87° |
| 2026-05-05 21:46 | 37.45335 | 14.90522 | 2349 ft | 145 kts | 87° |
| 2026-05-05 21:47 | 37.45439 | 14.91773 | 2163 ft | 145 kts | 86° |
| 2026-05-05 21:47 | 37.45543 | 14.93034 | 1971 ft | 144 kts | 86° |
| 2026-05-05 21:47 | 37.45647 | 14.94287 | 1784 ft | 143 kts | 86° |
| 2026-05-05 21:47 | 37.45748 | 14.95524 | 1594 ft | 142 kts | 86° |
| 2026-05-05 21:48 | 37.45851 | 14.96757 | 1404 ft | 141 kts | 85° |
| 2026-05-05 21:48 | 37.45953 | 14.97976 | 1216 ft | 139 kts | 85° |
| 2026-05-05 21:48 | 37.46053 | 14.99186 | 1029 ft | 137 kts | 84° |
| 2026-05-05 21:48 | 37.46147 | 15.00357 | 842 ft | 135 kts | 84° |
| 2026-05-05 21:49 | 37.46225 | 15.01525 | 646 ft | 133 kts | 82° |
| 2026-05-05 21:49 | 37.46329 | 15.02677 | 434 ft | 132 kts | 83° |
| 2026-05-05 21:49 | 37.46405 | 15.03822 | 223 ft | 132 kts | 83° |
| 2026-05-05 21:49 | 37.46520 | 15.04964 | 124 ft | 131 kts | 79° |
| 2026-05-05 21:50 | 37.46622 | 15.06100 | 51 ft | 127 kts | 82° |
| 2026-05-05 21:50 | 37.46701 | 15.06927 | 31 ft | 35 kts | 85° |
| 2026-05-05 21:50 | 37.46731 | 15.07213 | 33 ft | 31 kts | 82° |
| 2026-05-05 21:50 | 37.46753 | 15.07466 | 33 ft | 25 kts | 84° |
| 2026-05-05 21:51 | 37.46804 | 15.07670 | 33 ft | 22 kts | 60° |
| 2026-05-05 21:51 | 37.46847 | 15.07756 | 33 ft | 0 kts | 54° |
| 2026-05-05 21:51 | 37.46851 | 15.07761 | 33 ft | 8 kts | 53° |
| 2026-05-05 21:51 | 37.46930 | 15.07775 | 34 ft | 14 kts | 291° |
| 2026-05-05 21:52 | 37.46912 | 15.07518 | 34 ft | 15 kts | 264° |
| 2026-05-05 21:52 | 37.46902 | 15.07376 | 33 ft | 16 kts | 265° |
| 2026-05-05 21:52 | 37.46892 | 15.07227 | 33 ft | 17 kts | 265° |
| 2026-05-05 21:53 | 37.46879 | 15.07075 | 33 ft | 17 kts | 263° |
| 2026-05-05 21:53 | 37.46865 | 15.06928 | 32 ft | 16 kts | 264° |
| 2026-05-05 21:53 | 37.46856 | 15.06797 | 30 ft | 14 kts | 265° |
| 2026-05-05 21:53 | 37.46845 | 15.06667 | 30 ft | 13 kts | 264° |
| 2026-05-05 21:54 | 37.46880 | 15.06613 | 31 ft | 7 kts | 353° |
| 2026-05-05 21:54 | 37.46913 | 15.06621 | 31 ft | 0 kts | 19° |